sensor_id;sensor_type;location;lat;lon;timestamp;P1;durP1;ratioP1;P2;durP2;ratioP2
70414;SDS011;57837;52.064;113.478;2023-12-04T00:01:58;25.65;;;13.38;;
70414;SDS011;57837;52.064;113.478;2023-12-04T00:05:02;24.05;;;10.43;;
70414;SDS011;57837;52.064;113.478;2023-12-04T00:08:06;29.60;;;13.70;;
70414;SDS011;57837;52.064;113.478;2023-12-04T00:11:10;70.63;;;25.80;;
70414;SDS011;57837;52.064;113.478;2023-12-04T00:14:14;53.03;;;24.52;;
70414;SDS011;57837;52.064;113.478;2023-12-04T00:17:17;78.07;;;26.20;;
70414;SDS011;57837;52.064;113.478;2023-12-04T00:20:21;82.40;;;26.88;;
70414;SDS011;57837;52.064;113.478;2023-12-04T00:23:26;51.60;;;21.98;;
70414;SDS011;57837;52.064;113.478;2023-12-04T00:26:30;109.68;;;35.38;;
70414;SDS011;57837;52.064;113.478;2023-12-04T00:29:34;103.80;;;35.43;;
70414;SDS011;57837;52.064;113.478;2023-12-04T00:32:38;91.18;;;29.90;;
70414;SDS011;57837;52.064;113.478;2023-12-04T00:35:41;63.67;;;26.15;;
70414;SDS011;57837;52.064;113.478;2023-12-04T00:38:44;56.60;;;22.53;;
70414;SDS011;57837;52.064;113.478;2023-12-04T00:41:48;60.92;;;23.92;;
70414;SDS011;57837;52.064;113.478;2023-12-04T00:44:51;56.25;;;18.98;;
70414;SDS011;57837;52.064;113.478;2023-12-04T00:47:54;48.35;;;17.15;;
70414;SDS011;57837;52.064;113.478;2023-12-04T00:50:58;44.38;;;14.82;;
70414;SDS011;57837;52.064;113.478;2023-12-04T00:54:02;74.88;;;26.83;;
70414;SDS011;57837;52.064;113.478;2023-12-04T00:57:06;77.03;;;27.92;;
70414;SDS011;57837;52.064;113.478;2023-12-04T01:00:10;59.73;;;22.23;;
70414;SDS011;57837;52.064;113.478;2023-12-04T01:03:14;102.20;;;33.85;;
70414;SDS011;57837;52.064;113.478;2023-12-04T01:06:21;67.80;;;25.05;;
70414;SDS011;57837;52.064;113.478;2023-12-04T01:09:28;73.50;;;25.43;;
70414;SDS011;57837;52.064;113.478;2023-12-04T01:12:31;45.10;;;18.67;;
70414;SDS011;57837;52.064;113.478;2023-12-04T01:15:35;61.75;;;23.58;;
70414;SDS011;57837;52.064;113.478;2023-12-04T01:18:39;71.35;;;26.67;;
70414;SDS011;57837;52.064;113.478;2023-12-04T01:21:43;60.75;;;22.25;;
70414;SDS011;57837;52.064;113.478;2023-12-04T01:24:47;101.15;;;32.58;;
70414;SDS011;57837;52.064;113.478;2023-12-04T01:27:50;49.42;;;18.98;;
70414;SDS011;57837;52.064;113.478;2023-12-04T01:30:54;78.87;;;25.50;;
70414;SDS011;57837;52.064;113.478;2023-12-04T01:33:58;46.85;;;20.02;;
70414;SDS011;57837;52.064;113.478;2023-12-04T01:37:01;30.25;;;12.50;;
70414;SDS011;57837;52.064;113.478;2023-12-04T01:40:05;44.93;;;17.30;;
70414;SDS011;57837;52.064;113.478;2023-12-04T01:43:12;38.45;;;16.83;;
70414;SDS011;57837;52.064;113.478;2023-12-04T01:46:18;29.30;;;14.07;;
70414;SDS011;57837;52.064;113.478;2023-12-04T01:49:22;30.05;;;14.77;;
70414;SDS011;57837;52.064;113.478;2023-12-04T01:52:26;32.40;;;14.13;;
70414;SDS011;57837;52.064;113.478;2023-12-04T01:55:31;37.53;;;13.75;;
70414;SDS011;57837;52.064;113.478;2023-12-04T01:58:37;32.75;;;12.30;;
70414;SDS011;57837;52.064;113.478;2023-12-04T02:01:40;38.67;;;14.63;;
70414;SDS011;57837;52.064;113.478;2023-12-04T02:04:45;50.42;;;18.70;;
70414;SDS011;57837;52.064;113.478;2023-12-04T02:07:49;30.77;;;14.80;;
70414;SDS011;57837;52.064;113.478;2023-12-04T02:10:53;58.63;;;20.27;;
70414;SDS011;57837;52.064;113.478;2023-12-04T02:13:57;55.35;;;19.92;;
70414;SDS011;57837;52.064;113.478;2023-12-04T02:17:00;62.28;;;24.75;;
70414;SDS011;57837;52.064;113.478;2023-12-04T02:20:07;52.08;;;20.83;;
70414;SDS011;57837;52.064;113.478;2023-12-04T02:23:11;38.97;;;17.83;;
70414;SDS011;57837;52.064;113.478;2023-12-04T02:26:15;35.60;;;15.77;;
70414;SDS011;57837;52.064;113.478;2023-12-04T02:29:26;43.92;;;17.67;;
70414;SDS011;57837;52.064;113.478;2023-12-04T02:32:33;35.03;;;15.20;;
70414;SDS011;57837;52.064;113.478;2023-12-04T02:35:42;37.15;;;13.90;;
70414;SDS011;57837;52.064;113.478;2023-12-04T02:38:46;71.68;;;22.38;;
70414;SDS011;57837;52.064;113.478;2023-12-04T02:41:50;40.73;;;18.10;;
70414;SDS011;57837;52.064;113.478;2023-12-04T02:44:54;60.63;;;19.85;;
70414;SDS011;57837;52.064;113.478;2023-12-04T02:47:58;49.47;;;18.73;;
70414;SDS011;57837;52.064;113.478;2023-12-04T02:51:05;125.75;;;37.03;;
70414;SDS011;57837;52.064;113.478;2023-12-04T02:54:09;55.33;;;22.40;;
70414;SDS011;57837;52.064;113.478;2023-12-04T02:57:12;60.88;;;22.38;;
70414;SDS011;57837;52.064;113.478;2023-12-04T03:00:16;53.17;;;20.83;;
70414;SDS011;57837;52.064;113.478;2023-12-04T03:03:20;56.03;;;21.13;;
70414;SDS011;57837;52.064;113.478;2023-12-04T03:06:23;65.65;;;24.02;;
70414;SDS011;57837;52.064;113.478;2023-12-04T03:09:27;48.10;;;20.73;;
70414;SDS011;57837;52.064;113.478;2023-12-04T03:12:50;43.47;;;19.60;;
70414;SDS011;57837;52.064;113.478;2023-12-04T03:15:53;90.43;;;42.97;;
70414;SDS011;57837;52.064;113.478;2023-12-04T03:18:57;52.22;;;20.20;;
70414;SDS011;57837;52.064;113.478;2023-12-04T03:22:00;54.53;;;20.98;;
70414;SDS011;57837;52.064;113.478;2023-12-04T03:25:05;59.08;;;21.25;;
70414;SDS011;57837;52.064;113.478;2023-12-04T03:28:09;44.35;;;19.02;;
70414;SDS011;57837;52.064;113.478;2023-12-04T03:31:13;41.60;;;16.73;;
70414;SDS011;57837;52.064;113.478;2023-12-04T03:34:16;55.10;;;18.93;;
70414;SDS011;57837;52.064;113.478;2023-12-04T03:37:20;53.60;;;19.95;;
70414;SDS011;57837;52.064;113.478;2023-12-04T03:40:24;44.80;;;18.23;;
70414;SDS011;57837;52.064;113.478;2023-12-04T03:43:28;45.60;;;18.37;;
70414;SDS011;57837;52.064;113.478;2023-12-04T03:46:32;39.70;;;14.57;;
70414;SDS011;57837;52.064;113.478;2023-12-04T03:49:35;33.22;;;15.95;;
70414;SDS011;57837;52.064;113.478;2023-12-04T03:52:38;41.38;;;17.83;;
70414;SDS011;57837;52.064;113.478;2023-12-04T03:55:43;41.05;;;15.57;;
70414;SDS011;57837;52.064;113.478;2023-12-04T03:58:45;37.30;;;16.33;;
70414;SDS011;57837;52.064;113.478;2023-12-04T04:01:50;52.75;;;20.33;;
70414;SDS011;57837;52.064;113.478;2023-12-04T04:04:53;45.17;;;16.93;;
70414;SDS011;57837;52.064;113.478;2023-12-04T04:07:57;49.05;;;19.73;;
70414;SDS011;57837;52.064;113.478;2023-12-04T04:11:00;52.20;;;21.13;;
70414;SDS011;57837;52.064;113.478;2023-12-04T04:14:05;62.70;;;22.07;;
70414;SDS011;57837;52.064;113.478;2023-12-04T04:17:08;40.63;;;17.98;;
70414;SDS011;57837;52.064;113.478;2023-12-04T04:20:12;38.55;;;15.60;;
70414;SDS011;57837;52.064;113.478;2023-12-04T04:23:17;48.03;;;18.73;;
70414;SDS011;57837;52.064;113.478;2023-12-04T04:26:20;41.08;;;17.00;;
70414;SDS011;57837;52.064;113.478;2023-12-04T04:29:24;55.17;;;23.55;;
70414;SDS011;57837;52.064;113.478;2023-12-04T04:32:30;74.45;;;25.33;;
70414;SDS011;57837;52.064;113.478;2023-12-04T04:35:35;58.10;;;24.10;;
70414;SDS011;57837;52.064;113.478;2023-12-04T04:38:39;60.60;;;23.80;;
70414;SDS011;57837;52.064;113.478;2023-12-04T04:41:43;52.40;;;23.48;;
70414;SDS011;57837;52.064;113.478;2023-12-04T04:44:48;56.70;;;24.47;;
70414;SDS011;57837;52.064;113.478;2023-12-04T04:47:51;64.82;;;24.30;;
70414;SDS011;57837;52.064;113.478;2023-12-04T04:50:55;49.35;;;21.92;;
70414;SDS011;57837;52.064;113.478;2023-12-04T04:54:02;63.20;;;23.58;;
70414;SDS011;57837;52.064;113.478;2023-12-04T04:57:07;76.55;;;32.30;;
70414;SDS011;57837;52.064;113.478;2023-12-04T05:00:11;75.95;;;31.88;;
70414;SDS011;57837;52.064;113.478;2023-12-04T05:03:15;85.63;;;33.58;;
70414;SDS011;57837;52.064;113.478;2023-12-04T05:06:19;93.17;;;38.63;;
70414;SDS011;57837;52.064;113.478;2023-12-04T05:09:22;92.85;;;38.08;;
70414;SDS011;57837;52.064;113.478;2023-12-04T05:12:26;75.93;;;35.65;;
70414;SDS011;57837;52.064;113.478;2023-12-04T05:15:30;94.80;;;37.60;;
70414;SDS011;57837;52.064;113.478;2023-12-04T05:18:33;101.70;;;42.78;;
70414;SDS011;57837;52.064;113.478;2023-12-04T05:21:37;106.43;;;43.10;;
70414;SDS011;57837;52.064;113.478;2023-12-04T05:24:40;127.32;;;50.83;;
70414;SDS011;57837;52.064;113.478;2023-12-04T05:27:43;134.10;;;51.90;;
70414;SDS011;57837;52.064;113.478;2023-12-04T05:30:49;126.10;;;48.78;;
70414;SDS011;57837;52.064;113.478;2023-12-04T05:33:53;153.23;;;56.85;;
70414;SDS011;57837;52.064;113.478;2023-12-04T05:36:56;143.13;;;60.07;;
70414;SDS011;57837;52.064;113.478;2023-12-04T05:40:00;119.47;;;47.70;;
70414;SDS011;57837;52.064;113.478;2023-12-04T05:43:04;136.80;;;53.67;;
70414;SDS011;57837;52.064;113.478;2023-12-04T05:46:08;128.30;;;52.37;;
70414;SDS011;57837;52.064;113.478;2023-12-04T05:49:11;137.57;;;55.08;;
70414;SDS011;57837;52.064;113.478;2023-12-04T05:52:15;104.82;;;43.95;;
70414;SDS011;57837;52.064;113.478;2023-12-04T05:55:18;137.45;;;53.90;;
70414;SDS011;57837;52.064;113.478;2023-12-04T05:58:23;119.13;;;49.05;;
70414;SDS011;57837;52.064;113.478;2023-12-04T06:01:27;121.85;;;48.78;;
70414;SDS011;57837;52.064;113.478;2023-12-04T06:04:30;118.80;;;49.88;;
70414;SDS011;57837;52.064;113.478;2023-12-04T06:07:35;113.50;;;42.07;;
70414;SDS011;57837;52.064;113.478;2023-12-04T06:10:39;112.78;;;43.85;;
70414;SDS011;57837;52.064;113.478;2023-12-04T06:13:44;102.68;;;44.30;;
70414;SDS011;57837;52.064;113.478;2023-12-04T06:16:50;108.93;;;47.90;;
70414;SDS011;57837;52.064;113.478;2023-12-04T06:19:56;121.07;;;49.95;;
70414;SDS011;57837;52.064;113.478;2023-12-04T06:23:00;124.32;;;52.63;;
70414;SDS011;57837;52.064;113.478;2023-12-04T06:26:04;121.45;;;49.65;;
70414;SDS011;57837;52.064;113.478;2023-12-04T06:29:08;136.88;;;54.70;;
70414;SDS011;57837;52.064;113.478;2023-12-04T06:32:12;146.32;;;55.17;;
70414;SDS011;57837;52.064;113.478;2023-12-04T06:35:16;125.20;;;47.65;;
70414;SDS011;57837;52.064;113.478;2023-12-04T06:38:22;111.50;;;44.30;;
70414;SDS011;57837;52.064;113.478;2023-12-04T06:41:30;153.32;;;56.75;;
70414;SDS011;57837;52.064;113.478;2023-12-04T06:44:33;133.88;;;57.50;;
70414;SDS011;57837;52.064;113.478;2023-12-04T06:47:37;100.03;;;40.30;;
70414;SDS011;57837;52.064;113.478;2023-12-04T06:50:43;157.90;;;57.38;;
70414;SDS011;57837;52.064;113.478;2023-12-04T06:53:48;117.38;;;48.63;;
70414;SDS011;57837;52.064;113.478;2023-12-04T06:56:51;108.35;;;44.72;;
70414;SDS011;57837;52.064;113.478;2023-12-04T06:59:54;103.18;;;41.88;;
70414;SDS011;57837;52.064;113.478;2023-12-04T07:02:57;100.82;;;43.35;;
70414;SDS011;57837;52.064;113.478;2023-12-04T07:06:01;125.97;;;44.38;;
70414;SDS011;57837;52.064;113.478;2023-12-04T07:09:05;125.07;;;49.37;;
70414;SDS011;57837;52.064;113.478;2023-12-04T07:12:12;94.38;;;41.20;;
70414;SDS011;57837;52.064;113.478;2023-12-04T07:15:16;91.68;;;36.40;;
70414;SDS011;57837;52.064;113.478;2023-12-04T07:18:19;80.73;;;31.97;;
70414;SDS011;57837;52.064;113.478;2023-12-04T07:21:24;91.07;;;34.00;;
70414;SDS011;57837;52.064;113.478;2023-12-04T07:24:28;70.40;;;29.02;;
70414;SDS011;57837;52.064;113.478;2023-12-04T07:27:32;71.35;;;30.88;;
70414;SDS011;57837;52.064;113.478;2023-12-04T07:30:36;78.13;;;32.00;;
70414;SDS011;57837;52.064;113.478;2023-12-04T07:33:40;78.68;;;32.22;;
70414;SDS011;57837;52.064;113.478;2023-12-04T07:36:44;69.05;;;28.27;;
70414;SDS011;57837;52.064;113.478;2023-12-04T07:39:48;64.07;;;27.27;;
70414;SDS011;57837;52.064;113.478;2023-12-04T07:42:52;71.68;;;29.20;;
70414;SDS011;57837;52.064;113.478;2023-12-04T07:45:56;67.97;;;27.65;;
70414;SDS011;57837;52.064;113.478;2023-12-04T07:49:00;82.53;;;32.60;;
70414;SDS011;57837;52.064;113.478;2023-12-04T07:52:05;78.80;;;30.63;;
70414;SDS011;57837;52.064;113.478;2023-12-04T07:55:08;93.55;;;36.95;;
70414;SDS011;57837;52.064;113.478;2023-12-04T07:58:12;83.55;;;33.70;;
70414;SDS011;57837;52.064;113.478;2023-12-04T08:01:16;84.05;;;32.28;;
70414;SDS011;57837;52.064;113.478;2023-12-04T08:04:20;75.82;;;30.80;;
70414;SDS011;57837;52.064;113.478;2023-12-04T08:07:24;67.93;;;29.52;;
70414;SDS011;57837;52.064;113.478;2023-12-04T08:10:28;54.10;;;23.43;;
70414;SDS011;57837;52.064;113.478;2023-12-04T08:13:31;50.15;;;22.02;;
70414;SDS011;57837;52.064;113.478;2023-12-04T08:16:36;63.60;;;23.80;;
70414;SDS011;57837;52.064;113.478;2023-12-04T08:19:39;61.17;;;23.70;;
70414;SDS011;57837;52.064;113.478;2023-12-04T08:22:45;67.25;;;26.00;;
70414;SDS011;57837;52.064;113.478;2023-12-04T08:25:48;78.70;;;27.58;;
70414;SDS011;57837;52.064;113.478;2023-12-04T08:28:53;76.43;;;33.13;;
70414;SDS011;57837;52.064;113.478;2023-12-04T08:31:56;118.78;;;39.45;;
70414;SDS011;57837;52.064;113.478;2023-12-04T08:35:08;115.47;;;43.22;;
70414;SDS011;57837;52.064;113.478;2023-12-04T08:38:11;123.50;;;44.40;;
70414;SDS011;57837;52.064;113.478;2023-12-04T08:41:16;109.70;;;43.80;;
70414;SDS011;57837;52.064;113.478;2023-12-04T08:44:30;129.98;;;53.30;;
70414;SDS011;57837;52.064;113.478;2023-12-04T08:47:54;122.70;;;47.15;;
70414;SDS011;57837;52.064;113.478;2023-12-04T08:50:58;128.50;;;50.03;;
70414;SDS011;57837;52.064;113.478;2023-12-04T08:54:02;132.00;;;54.00;;
70414;SDS011;57837;52.064;113.478;2023-12-04T08:57:18;136.00;;;48.10;;
70414;SDS011;57837;52.064;113.478;2023-12-04T09:00:22;98.47;;;39.08;;
70414;SDS011;57837;52.064;113.478;2023-12-04T09:03:26;84.57;;;32.17;;
70414;SDS011;57837;52.064;113.478;2023-12-04T09:06:33;55.70;;;23.50;;
70414;SDS011;57837;52.064;113.478;2023-12-04T09:09:40;72.20;;;26.23;;
70414;SDS011;57837;52.064;113.478;2023-12-04T09:12:45;74.47;;;24.87;;
70414;SDS011;57837;52.064;113.478;2023-12-04T09:15:48;64.00;;;24.48;;
70414;SDS011;57837;52.064;113.478;2023-12-04T09:18:52;52.30;;;21.70;;
70414;SDS011;57837;52.064;113.478;2023-12-04T09:21:56;55.33;;;21.97;;
70414;SDS011;57837;52.064;113.478;2023-12-04T09:25:14;59.10;;;23.08;;
70414;SDS011;57837;52.064;113.478;2023-12-04T09:28:18;63.78;;;23.23;;
70414;SDS011;57837;52.064;113.478;2023-12-04T09:31:22;73.15;;;29.23;;
70414;SDS011;57837;52.064;113.478;2023-12-04T09:34:25;89.13;;;28.63;;
70414;SDS011;57837;52.064;113.478;2023-12-04T09:37:29;71.47;;;27.63;;
70414;SDS011;57837;52.064;113.478;2023-12-04T09:40:33;95.47;;;38.70;;
70414;SDS011;57837;52.064;113.478;2023-12-04T09:43:37;136.23;;;45.47;;
70414;SDS011;57837;52.064;113.478;2023-12-04T09:46:41;137.30;;;49.50;;
70414;SDS011;57837;52.064;113.478;2023-12-04T09:49:45;122.45;;;48.83;;
70414;SDS011;57837;52.064;113.478;2023-12-04T09:52:50;111.87;;;42.27;;
70414;SDS011;57837;52.064;113.478;2023-12-04T09:55:59;116.88;;;45.70;;
70414;SDS011;57837;52.064;113.478;2023-12-04T09:59:06;129.25;;;46.65;;
70414;SDS011;57837;52.064;113.478;2023-12-04T10:02:11;126.18;;;49.05;;
70414;SDS011;57837;52.064;113.478;2023-12-04T10:05:16;98.13;;;40.22;;
70414;SDS011;57837;52.064;113.478;2023-12-04T10:08:19;116.50;;;44.58;;
70414;SDS011;57837;52.064;113.478;2023-12-04T10:11:24;110.07;;;44.95;;
70414;SDS011;57837;52.064;113.478;2023-12-04T10:14:29;83.43;;;33.20;;
70414;SDS011;57837;52.064;113.478;2023-12-04T10:17:34;141.80;;;53.05;;
70414;SDS011;57837;52.064;113.478;2023-12-04T10:20:51;162.77;;;56.63;;
70414;SDS011;57837;52.064;113.478;2023-12-04T10:23:57;116.60;;;45.40;;
70414;SDS011;57837;52.064;113.478;2023-12-04T10:27:01;119.82;;;47.00;;
70414;SDS011;57837;52.064;113.478;2023-12-04T10:30:08;154.20;;;59.55;;
70414;SDS011;57837;52.064;113.478;2023-12-04T10:33:12;158.77;;;59.10;;
70414;SDS011;57837;52.064;113.478;2023-12-04T10:36:17;171.93;;;65.03;;
70414;SDS011;57837;52.064;113.478;2023-12-04T10:39:22;146.75;;;53.80;;
70414;SDS011;57837;52.064;113.478;2023-12-04T10:42:27;105.50;;;40.60;;
70414;SDS011;57837;52.064;113.478;2023-12-04T10:45:32;68.63;;;27.17;;
70414;SDS011;57837;52.064;113.478;2023-12-04T10:48:38;57.05;;;24.88;;
70414;SDS011;57837;52.064;113.478;2023-12-04T10:51:42;49.83;;;20.77;;
70414;SDS011;57837;52.064;113.478;2023-12-04T10:54:47;39.17;;;16.40;;
70414;SDS011;57837;52.064;113.478;2023-12-04T10:57:52;34.47;;;15.80;;
70414;SDS011;57837;52.064;113.478;2023-12-04T11:00:57;100.72;;;41.53;;
70414;SDS011;57837;52.064;113.478;2023-12-04T11:04:07;96.88;;;40.90;;
70414;SDS011;57837;52.064;113.478;2023-12-04T11:07:14;82.20;;;33.47;;
70414;SDS011;57837;52.064;113.478;2023-12-04T11:10:18;106.20;;;41.17;;
70414;SDS011;57837;52.064;113.478;2023-12-04T11:13:42;84.30;;;30.13;;
70414;SDS011;57837;52.064;113.478;2023-12-04T11:16:51;57.17;;;22.50;;
70414;SDS011;57837;52.064;113.478;2023-12-04T11:20:02;85.18;;;31.13;;
70414;SDS011;57837;52.064;113.478;2023-12-04T11:23:13;68.38;;;26.30;;
70414;SDS011;57837;52.064;113.478;2023-12-04T11:26:21;95.73;;;36.40;;
70414;SDS011;57837;52.064;113.478;2023-12-04T11:29:25;81.45;;;33.10;;
70414;SDS011;57837;52.064;113.478;2023-12-04T11:32:31;98.50;;;37.35;;
70414;SDS011;57837;52.064;113.478;2023-12-04T11:35:46;98.13;;;35.72;;
70414;SDS011;57837;52.064;113.478;2023-12-04T11:38:50;93.35;;;37.45;;
70414;SDS011;57837;52.064;113.478;2023-12-04T11:41:54;81.90;;;30.30;;
70414;SDS011;57837;52.064;113.478;2023-12-04T11:44:57;88.75;;;34.45;;
70414;SDS011;57837;52.064;113.478;2023-12-04T11:48:01;88.47;;;35.03;;
70414;SDS011;57837;52.064;113.478;2023-12-04T11:51:06;112.43;;;43.22;;
70414;SDS011;57837;52.064;113.478;2023-12-04T11:54:10;112.10;;;43.10;;
70414;SDS011;57837;52.064;113.478;2023-12-04T11:57:19;169.40;;;57.10;;
70414;SDS011;57837;52.064;113.478;2023-12-04T12:00:28;177.98;;;63.42;;
70414;SDS011;57837;52.064;113.478;2023-12-04T12:03:33;170.27;;;60.45;;
70414;SDS011;57837;52.064;113.478;2023-12-04T12:06:36;145.98;;;53.55;;
70414;SDS011;57837;52.064;113.478;2023-12-04T12:09:42;124.28;;;46.45;;
70414;SDS011;57837;52.064;113.478;2023-12-04T12:12:46;128.18;;;48.83;;
70414;SDS011;57837;52.064;113.478;2023-12-04T12:15:52;150.30;;;54.53;;
70414;SDS011;57837;52.064;113.478;2023-12-04T12:18:55;157.20;;;54.90;;
70414;SDS011;57837;52.064;113.478;2023-12-04T12:22:00;149.57;;;54.90;;
70414;SDS011;57837;52.064;113.478;2023-12-04T12:25:08;93.07;;;33.35;;
70414;SDS011;57837;52.064;113.478;2023-12-04T12:28:14;114.77;;;41.10;;
70414;SDS011;57837;52.064;113.478;2023-12-04T12:31:20;120.60;;;45.05;;
70414;SDS011;57837;52.064;113.478;2023-12-04T12:34:26;110.55;;;40.13;;
70414;SDS011;57837;52.064;113.478;2023-12-04T12:37:33;128.57;;;42.53;;
70414;SDS011;57837;52.064;113.478;2023-12-04T12:40:42;133.98;;;52.83;;
70414;SDS011;57837;52.064;113.478;2023-12-04T12:43:51;104.07;;;44.28;;
70414;SDS011;57837;52.064;113.478;2023-12-04T12:47:00;188.10;;;75.32;;
70414;SDS011;57837;52.064;113.478;2023-12-04T12:50:08;213.00;;;75.30;;
70414;SDS011;57837;52.064;113.478;2023-12-04T12:53:18;189.07;;;74.78;;
70414;SDS011;57837;52.064;113.478;2023-12-04T12:56:25;201.55;;;74.18;;
70414;SDS011;57837;52.064;113.478;2023-12-04T12:59:30;192.60;;;64.53;;
70414;SDS011;57837;52.064;113.478;2023-12-04T13:02:36;204.32;;;77.97;;
70414;SDS011;57837;52.064;113.478;2023-12-04T13:05:44;109.43;;;37.88;;
70414;SDS011;57837;52.064;113.478;2023-12-04T13:08:56;87.53;;;31.50;;
70414;SDS011;57837;52.064;113.478;2023-12-04T13:12:00;112.00;;;37.97;;
70414;SDS011;57837;52.064;113.478;2023-12-04T13:15:06;93.07;;;31.85;;
70414;SDS011;57837;52.064;113.478;2023-12-04T13:18:18;103.82;;;32.92;;
70414;SDS011;57837;52.064;113.478;2023-12-04T13:21:31;103.83;;;38.47;;
70414;SDS011;57837;52.064;113.478;2023-12-04T13:24:36;127.68;;;47.60;;
70414;SDS011;57837;52.064;113.478;2023-12-04T13:27:42;143.60;;;55.50;;
70414;SDS011;57837;52.064;113.478;2023-12-04T13:30:48;158.27;;;59.80;;
70414;SDS011;57837;52.064;113.478;2023-12-04T13:33:54;153.35;;;60.13;;
70414;SDS011;57837;52.064;113.478;2023-12-04T13:36:58;143.70;;;58.03;;
70414;SDS011;57837;52.064;113.478;2023-12-04T13:40:03;191.95;;;70.47;;
70414;SDS011;57837;52.064;113.478;2023-12-04T13:43:09;196.47;;;70.20;;
70414;SDS011;57837;52.064;113.478;2023-12-04T13:46:32;191.85;;;70.22;;
70414;SDS011;57837;52.064;113.478;2023-12-04T13:49:36;238.10;;;86.15;;
70414;SDS011;57837;52.064;113.478;2023-12-04T13:52:40;236.33;;;88.40;;
70414;SDS011;57837;52.064;113.478;2023-12-04T13:55:45;172.93;;;69.50;;
70414;SDS011;57837;52.064;113.478;2023-12-04T13:58:58;188.80;;;74.78;;
70414;SDS011;57837;52.064;113.478;2023-12-04T14:02:02;212.63;;;78.43;;
70414;SDS011;57837;52.064;113.478;2023-12-04T14:05:11;257.90;;;95.18;;
70414;SDS011;57837;52.064;113.478;2023-12-04T14:08:18;196.30;;;81.30;;
70414;SDS011;57837;52.064;113.478;2023-12-04T14:11:22;140.77;;;54.05;;
70414;SDS011;57837;52.064;113.478;2023-12-04T14:14:26;175.70;;;63.80;;
70414;SDS011;57837;52.064;113.478;2023-12-04T14:17:31;243.38;;;89.07;;
70414;SDS011;57837;52.064;113.478;2023-12-04T14:20:35;175.77;;;68.93;;
70414;SDS011;57837;52.064;113.478;2023-12-04T14:23:39;199.97;;;78.00;;
70414;SDS011;57837;52.064;113.478;2023-12-04T14:26:42;151.98;;;57.25;;
70414;SDS011;57837;52.064;113.478;2023-12-04T14:29:46;178.93;;;63.17;;
70414;SDS011;57837;52.064;113.478;2023-12-04T14:32:52;149.20;;;57.05;;
70414;SDS011;57837;52.064;113.478;2023-12-04T14:35:56;156.38;;;57.03;;
70414;SDS011;57837;52.064;113.478;2023-12-04T14:39:00;233.65;;;79.30;;
70414;SDS011;57837;52.064;113.478;2023-12-04T14:42:03;98.45;;;35.78;;
70414;SDS011;57837;52.064;113.478;2023-12-04T14:45:07;67.30;;;29.83;;
70414;SDS011;57837;52.064;113.478;2023-12-04T14:48:15;66.95;;;25.17;;
70414;SDS011;57837;52.064;113.478;2023-12-04T14:51:18;60.80;;;23.77;;
70414;SDS011;57837;52.064;113.478;2023-12-04T14:54:22;58.93;;;26.10;;
70414;SDS011;57837;52.064;113.478;2023-12-04T14:57:40;76.18;;;30.40;;
70414;SDS011;57837;52.064;113.478;2023-12-04T15:00:44;71.93;;;28.35;;
70414;SDS011;57837;52.064;113.478;2023-12-04T15:04:16;60.47;;;22.42;;
70414;SDS011;57837;52.064;113.478;2023-12-04T15:07:39;52.05;;;19.73;;
70414;SDS011;57837;52.064;113.478;2023-12-04T15:10:43;52.45;;;20.80;;
70414;SDS011;57837;52.064;113.478;2023-12-04T15:13:56;56.00;;;21.58;;
70414;SDS011;57837;52.064;113.478;2023-12-04T15:17:12;92.93;;;34.37;;
70414;SDS011;57837;52.064;113.478;2023-12-04T15:20:31;87.28;;;31.38;;
70414;SDS011;57837;52.064;113.478;2023-12-04T15:23:40;93.05;;;34.78;;
70414;SDS011;57837;52.064;113.478;2023-12-04T15:26:44;95.10;;;34.57;;
70414;SDS011;57837;52.064;113.478;2023-12-04T15:29:48;101.25;;;37.42;;
70414;SDS011;57837;52.064;113.478;2023-12-04T15:32:53;76.57;;;30.55;;
70414;SDS011;57837;52.064;113.478;2023-12-04T15:35:58;77.63;;;30.15;;
70414;SDS011;57837;52.064;113.478;2023-12-04T15:39:01;108.68;;;38.10;;
70414;SDS011;57837;52.064;113.478;2023-12-04T15:42:05;93.40;;;35.28;;
70414;SDS011;57837;52.064;113.478;2023-12-04T15:45:10;96.95;;;35.22;;
70414;SDS011;57837;52.064;113.478;2023-12-04T15:48:14;141.03;;;45.77;;
70414;SDS011;57837;52.064;113.478;2023-12-04T15:51:17;181.00;;;64.35;;
70414;SDS011;57837;52.064;113.478;2023-12-04T15:54:21;165.63;;;63.83;;
70414;SDS011;57837;52.064;113.478;2023-12-04T15:57:25;222.63;;;80.70;;
70414;SDS011;57837;52.064;113.478;2023-12-04T16:00:28;193.55;;;75.55;;
70414;SDS011;57837;52.064;113.478;2023-12-04T16:03:32;281.33;;;101.55;;
70414;SDS011;57837;52.064;113.478;2023-12-04T16:06:36;250.25;;;87.53;;
70414;SDS011;57837;52.064;113.478;2023-12-04T16:09:40;230.60;;;84.25;;
70414;SDS011;57837;52.064;113.478;2023-12-04T16:12:43;279.25;;;101.13;;
70414;SDS011;57837;52.064;113.478;2023-12-04T16:15:46;231.27;;;79.50;;
70414;SDS011;57837;52.064;113.478;2023-12-04T16:18:51;131.07;;;47.30;;
70414;SDS011;57837;52.064;113.478;2023-12-04T16:21:55;101.80;;;38.42;;
70414;SDS011;57837;52.064;113.478;2023-12-04T16:24:59;214.32;;;76.80;;
70414;SDS011;57837;52.064;113.478;2023-12-04T16:28:02;216.30;;;79.00;;
70414;SDS011;57837;52.064;113.478;2023-12-04T16:31:06;301.08;;;100.53;;
70414;SDS011;57837;52.064;113.478;2023-12-04T16:34:10;285.23;;;96.47;;
70414;SDS011;57837;52.064;113.478;2023-12-04T16:37:14;252.05;;;86.05;;
70414;SDS011;57837;52.064;113.478;2023-12-04T16:40:18;219.38;;;80.63;;
70414;SDS011;57837;52.064;113.478;2023-12-04T16:43:22;243.85;;;88.75;;
70414;SDS011;57837;52.064;113.478;2023-12-04T16:46:25;300.63;;;108.22;;
70414;SDS011;57837;52.064;113.478;2023-12-04T16:49:30;124.07;;;41.03;;
70414;SDS011;57837;52.064;113.478;2023-12-04T16:52:34;256.98;;;95.15;;
70414;SDS011;57837;52.064;113.478;2023-12-04T16:55:38;162.05;;;59.05;;
70414;SDS011;57837;52.064;113.478;2023-12-04T16:58:41;209.63;;;72.33;;
70414;SDS011;57837;52.064;113.478;2023-12-04T17:01:44;259.23;;;94.43;;
70414;SDS011;57837;52.064;113.478;2023-12-04T17:04:48;289.33;;;109.75;;
70414;SDS011;57837;52.064;113.478;2023-12-04T17:07:53;307.90;;;111.22;;
70414;SDS011;57837;52.064;113.478;2023-12-04T17:10:56;343.23;;;131.77;;
70414;SDS011;57837;52.064;113.478;2023-12-04T17:14:01;338.92;;;124.55;;
70414;SDS011;57837;52.064;113.478;2023-12-04T17:17:06;357.38;;;127.78;;
70414;SDS011;57837;52.064;113.478;2023-12-04T17:20:10;339.00;;;123.93;;
70414;SDS011;57837;52.064;113.478;2023-12-04T17:23:14;265.13;;;102.82;;
70414;SDS011;57837;52.064;113.478;2023-12-04T17:26:18;310.42;;;113.43;;